sensor_id;sensor_type;location;lat;lon;timestamp;temperature;humidity
21565;DHT22;10943;48.738;9.320;2022-09-13T00:01:09;17.50;99.90
21565;DHT22;10943;48.738;9.320;2022-09-13T00:03:37;17.60;99.90
21565;DHT22;10943;48.738;9.320;2022-09-13T00:06:07;17.50;99.90
21565;DHT22;10943;48.738;9.320;2022-09-13T00:08:37;17.50;99.90
21565;DHT22;10943;48.738;9.320;2022-09-13T00:11:06;17.40;99.90
21565;DHT22;10943;48.738;9.320;2022-09-13T00:13:39;17.40;99.90
21565;DHT22;10943;48.738;9.320;2022-09-13T00:16:11;17.50;99.90
21565;DHT22;10943;48.738;9.320;2022-09-13T00:18:41;17.50;99.90
21565;DHT22;10943;48.738;9.320;2022-09-13T00:21:12;17.40;99.90
21565;DHT22;10943;48.738;9.320;2022-09-13T00:23:44;17.40;99.90
21565;DHT22;10943;48.738;9.320;2022-09-13T00:26:17;17.40;99.90
21565;DHT22;10943;48.738;9.320;2022-09-13T00:28:54;17.50;99.90
21565;DHT22;10943;48.738;9.320;2022-09-13T00:31:26;17.50;99.90
21565;DHT22;10943;48.738;9.320;2022-09-13T00:33:57;17.40;99.90
21565;DHT22;10943;48.738;9.320;2022-09-13T00:36:26;17.50;99.90
21565;DHT22;10943;48.738;9.320;2022-09-13T00:38:53;17.40;99.90
21565;DHT22;10943;48.738;9.320;2022-09-13T00:41:21;17.10;99.90
21565;DHT22;10943;48.738;9.320;2022-09-13T00:46:46;17.10;99.90
21565;DHT22;10943;48.738;9.320;2022-09-13T00:51:57;17.10;99.90
21565;DHT22;10943;48.738;9.320;2022-09-13T00:54:36;17.00;99.90
21565;DHT22;10943;48.738;9.320;2022-09-13T01:00:25;17.00;99.90
21565;DHT22;10943;48.738;9.320;2022-09-13T01:02:59;17.00;99.90
21565;DHT22;10943;48.738;9.320;2022-09-13T01:05:34;17.10;99.90
21565;DHT22;10943;48.738;9.320;2022-09-13T01:08:07;17.30;99.90
21565;DHT22;10943;48.738;9.320;2022-09-13T01:10:44;17.40;99.90
21565;DHT22;10943;48.738;9.320;2022-09-13T01:13:17;17.40;99.90
21565;DHT22;10943;48.738;9.320;2022-09-13T01:15:48;17.30;99.90
21565;DHT22;10943;48.738;9.320;2022-09-13T01:18:16;17.20;99.90
21565;DHT22;10943;48.738;9.320;2022-09-13T01:46:30;17.10;99.90
21565;DHT22;10943;48.738;9.320;2022-09-13T01:49:18;17.00;99.90
21565;DHT22;10943;48.738;9.320;2022-09-13T01:52:13;17.00;99.90
21565;DHT22;10943;48.738;9.320;2022-09-13T01:54:59;16.80;99.90
21565;DHT22;10943;48.738;9.320;2022-09-13T01:58:01;16.80;99.90
21565;DHT22;10943;48.738;9.320;2022-09-13T02:00:50;16.80;99.90
21565;DHT22;10943;48.738;9.320;2022-09-13T02:03:32;16.90;99.90
21565;DHT22;10943;48.738;9.320;2022-09-13T02:06:20;17.00;99.90
21565;DHT22;10943;48.738;9.320;2022-09-13T02:08:55;17.00;99.90
21565;DHT22;10943;48.738;9.320;2022-09-13T02:11:28;16.80;99.90
21565;DHT22;10943;48.738;9.320;2022-09-13T02:17:02;16.50;99.90
21565;DHT22;10943;48.738;9.320;2022-09-13T02:19:59;16.30;99.90
21565;DHT22;10943;48.738;9.320;2022-09-13T02:22:33;16.40;99.90
21565;DHT22;10943;48.738;9.320;2022-09-13T02:25:09;16.50;99.90
21565;DHT22;10943;48.738;9.320;2022-09-13T02:27:44;16.20;99.90
21565;DHT22;10943;48.738;9.320;2022-09-13T02:30:15;16.20;99.90
21565;DHT22;10943;48.738;9.320;2022-09-13T02:32:58;16.30;99.90
21565;DHT22;10943;48.738;9.320;2022-09-13T02:35:35;16.30;99.90
21565;DHT22;10943;48.738;9.320;2022-09-13T02:38:14;16.40;99.90
21565;DHT22;10943;48.738;9.320;2022-09-13T02:40:56;16.40;99.90
21565;DHT22;10943;48.738;9.320;2022-09-13T02:43:37;16.50;99.90
21565;DHT22;10943;48.738;9.320;2022-09-13T02:54:50;16.50;99.90
21565;DHT22;10943;48.738;9.320;2022-09-13T02:57:36;16.30;99.90
21565;DHT22;10943;48.738;9.320;2022-09-13T03:00:13;16.10;99.90
21565;DHT22;10943;48.738;9.320;2022-09-13T03:02:42;16.20;99.90
21565;DHT22;10943;48.738;9.320;2022-09-13T03:05:11;16.30;99.90
21565;DHT22;10943;48.738;9.320;2022-09-13T03:07:38;16.30;99.90
21565;DHT22;10943;48.738;9.320;2022-09-13T03:10:09;16.30;99.90
21565;DHT22;10943;48.738;9.320;2022-09-13T03:22:05;16.30;99.90
21565;DHT22;10943;48.738;9.320;2022-09-13T03:25:50;16.30;99.90
21565;DHT22;10943;48.738;9.320;2022-09-13T03:29:01;16.40;99.90
21565;DHT22;10943;48.738;9.320;2022-09-13T03:32:06;16.40;99.90
21565;DHT22;10943;48.738;9.320;2022-09-13T03:40:14;16.50;99.90
21565;DHT22;10943;48.738;9.320;2022-09-13T03:43:05;16.30;99.90
21565;DHT22;10943;48.738;9.320;2022-09-13T03:45:43;16.30;99.90
21565;DHT22;10943;48.738;9.320;2022-09-13T03:48:22;16.20;99.90
21565;DHT22;10943;48.738;9.320;2022-09-13T03:50:50;16.10;99.90
21565;DHT22;10943;48.738;9.320;2022-09-13T03:53:22;16.10;99.90
21565;DHT22;10943;48.738;9.320;2022-09-13T03:55:59;16.20;99.90
21565;DHT22;10943;48.738;9.320;2022-09-13T03:58:27;16.10;99.90
21565;DHT22;10943;48.738;9.320;2022-09-13T04:00:54;16.10;99.90
21565;DHT22;10943;48.738;9.320;2022-09-13T04:03:22;16.20;99.90
21565;DHT22;10943;48.738;9.320;2022-09-13T04:05:50;16.20;99.90
21565;DHT22;10943;48.738;9.320;2022-09-13T04:08:17;16.10;99.90
21565;DHT22;10943;48.738;9.320;2022-09-13T04:10:44;16.20;99.90
21565;DHT22;10943;48.738;9.320;2022-09-13T04:13:16;16.20;99.90
21565;DHT22;10943;48.738;9.320;2022-09-13T04:15:44;16.20;99.90
21565;DHT22;10943;48.738;9.320;2022-09-13T04:18:11;16.00;99.90
21565;DHT22;10943;48.738;9.320;2022-09-13T04:20:39;16.00;99.90
21565;DHT22;10943;48.738;9.320;2022-09-13T04:23:06;15.90;99.90
21565;DHT22;10943;48.738;9.320;2022-09-13T04:25:36;15.60;99.90
21565;DHT22;10943;48.738;9.320;2022-09-13T04:28:06;15.50;99.90
21565;DHT22;10943;48.738;9.320;2022-09-13T04:30:33;15.40;99.90
21565;DHT22;10943;48.738;9.320;2022-09-13T04:33:01;15.40;99.90
21565;DHT22;10943;48.738;9.320;2022-09-13T04:35:28;15.50;99.90
21565;DHT22;10943;48.738;9.320;2022-09-13T04:37:55;15.60;99.90
21565;DHT22;10943;48.738;9.320;2022-09-13T04:40:24;15.50;99.90
21565;DHT22;10943;48.738;9.320;2022-09-13T04:42:51;15.50;99.90
21565;DHT22;10943;48.738;9.320;2022-09-13T04:45:18;15.50;99.90
21565;DHT22;10943;48.738;9.320;2022-09-13T04:47:51;15.50;99.90
21565;DHT22;10943;48.738;9.320;2022-09-13T04:50:20;15.40;99.90
21565;DHT22;10943;48.738;9.320;2022-09-13T04:52:50;15.50;99.90
21565;DHT22;10943;48.738;9.320;2022-09-13T04:55:26;15.50;99.90
21565;DHT22;10943;48.738;9.320;2022-09-13T04:57:54;15.70;99.90
21565;DHT22;10943;48.738;9.320;2022-09-13T05:00:22;15.70;99.90
21565;DHT22;10943;48.738;9.320;2022-09-13T05:02:55;15.90;99.90
21565;DHT22;10943;48.738;9.320;2022-09-13T05:05:23;16.40;99.90
21565;DHT22;10943;48.738;9.320;2022-09-13T05:07:52;16.50;99.90
21565;DHT22;10943;48.738;9.320;2022-09-13T05:10:19;16.50;99.90
21565;DHT22;10943;48.738;9.320;2022-09-13T05:12:46;16.60;99.90
21565;DHT22;10943;48.738;9.320;2022-09-13T05:15:14;16.50;99.90
21565;DHT22;10943;48.738;9.320;2022-09-13T05:17:41;16.70;99.90
21565;DHT22;10943;48.738;9.320;2022-09-13T05:20:09;16.60;99.90
21565;DHT22;10943;48.738;9.320;2022-09-13T05:22:37;16.80;99.90
21565;DHT22;10943;48.738;9.320;2022-09-13T05:25:05;16.70;99.90
21565;DHT22;10943;48.738;9.320;2022-09-13T05:27:33;16.90;99.90
21565;DHT22;10943;48.738;9.320;2022-09-13T05:30:00;17.10;99.90
21565;DHT22;10943;48.738;9.320;2022-09-13T05:32:30;17.10;99.90
21565;DHT22;10943;48.738;9.320;2022-09-13T05:34:58;17.40;99.90
21565;DHT22;10943;48.738;9.320;2022-09-13T05:37:25;17.80;99.90
21565;DHT22;10943;48.738;9.320;2022-09-13T05:39:52;18.50;99.90
21565;DHT22;10943;48.738;9.320;2022-09-13T05:42:37;18.90;99.90
21565;DHT22;10943;48.738;9.320;2022-09-13T05:45:05;18.90;99.90
21565;DHT22;10943;48.738;9.320;2022-09-13T05:47:33;18.80;99.90
21565;DHT22;10943;48.738;9.320;2022-09-13T05:50:00;18.70;99.90
21565;DHT22;10943;48.738;9.320;2022-09-13T05:52:39;18.50;99.90
21565;DHT22;10943;48.738;9.320;2022-09-13T05:55:08;18.40;99.90
21565;DHT22;10943;48.738;9.320;2022-09-13T05:57:35;18.40;99.90
21565;DHT22;10943;48.738;9.320;2022-09-13T06:00:03;18.60;99.90
21565;DHT22;10943;48.738;9.320;2022-09-13T06:02:48;18.50;99.90
21565;DHT22;10943;48.738;9.320;2022-09-13T06:05:34;19.00;99.90
21565;DHT22;10943;48.738;9.320;2022-09-13T06:08:01;19.50;99.90
21565;DHT22;10943;48.738;9.320;2022-09-13T06:10:29;19.90;99.90
21565;DHT22;10943;48.738;9.320;2022-09-13T06:12:56;20.10;99.90
21565;DHT22;10943;48.738;9.320;2022-09-13T06:15:23;20.40;99.90
21565;DHT22;10943;48.738;9.320;2022-09-13T06:17:50;20.30;99.90
21565;DHT22;10943;48.738;9.320;2022-09-13T06:20:18;20.40;99.90
21565;DHT22;10943;48.738;9.320;2022-09-13T06:22:47;20.60;99.90
21565;DHT22;10943;48.738;9.320;2022-09-13T06:25:15;21.00;99.90
21565;DHT22;10943;48.738;9.320;2022-09-13T06:27:43;21.00;99.90
21565;DHT22;10943;48.738;9.320;2022-09-13T06:30:10;21.50;99.90
21565;DHT22;10943;48.738;9.320;2022-09-13T06:32:38;22.20;99.90
21565;DHT22;10943;48.738;9.320;2022-09-13T06:35:07;22.80;99.90
21565;DHT22;10943;48.738;9.320;2022-09-13T06:37:34;23.60;99.90
21565;DHT22;10943;48.738;9.320;2022-09-13T06:40:02;23.70;99.90
21565;DHT22;10943;48.738;9.320;2022-09-13T06:42:34;23.50;99.90
21565;DHT22;10943;48.738;9.320;2022-09-13T06:45:02;22.80;99.90
21565;DHT22;10943;48.738;9.320;2022-09-13T06:47:30;22.50;99.90
21565;DHT22;10943;48.738;9.320;2022-09-13T06:49:58;22.00;99.90
21565;DHT22;10943;48.738;9.320;2022-09-13T06:52:26;21.90;99.90
21565;DHT22;10943;48.738;9.320;2022-09-13T06:54:53;22.10;99.90
21565;DHT22;10943;48.738;9.320;2022-09-13T06:57:21;23.10;99.90
21565;DHT22;10943;48.738;9.320;2022-09-13T06:59:48;24.50;99.90
21565;DHT22;10943;48.738;9.320;2022-09-13T07:02:16;25.80;99.90
21565;DHT22;10943;48.738;9.320;2022-09-13T07:04:44;26.20;99.90
21565;DHT22;10943;48.738;9.320;2022-09-13T07:07:12;26.60;99.90
21565;DHT22;10943;48.738;9.320;2022-09-13T07:09:44;27.40;99.90
21565;DHT22;10943;48.738;9.320;2022-09-13T07:12:11;28.50;99.90
21565;DHT22;10943;48.738;9.320;2022-09-13T07:14:44;29.40;99.90
21565;DHT22;10943;48.738;9.320;2022-09-13T07:17:11;29.90;99.90
21565;DHT22;10943;48.738;9.320;2022-09-13T07:19:39;30.30;99.90
21565;DHT22;10943;48.738;9.320;2022-09-13T07:22:06;30.00;99.90
21565;DHT22;10943;48.738;9.320;2022-09-13T07:24:34;30.40;99.90
21565;DHT22;10943;48.738;9.320;2022-09-13T07:27:02;29.60;99.90
21565;DHT22;10943;48.738;9.320;2022-09-13T07:29:29;28.80;99.90
21565;DHT22;10943;48.738;9.320;2022-09-13T07:31:56;27.80;99.90
21565;DHT22;10943;48.738;9.320;2022-09-13T07:34:25;27.10;99.90
21565;DHT22;10943;48.738;9.320;2022-09-13T07:36:53;27.00;99.90
21565;DHT22;10943;48.738;9.320;2022-09-13T07:39:21;26.80;99.90
21565;DHT22;10943;48.738;9.320;2022-09-13T07:41:50;26.00;99.90
21565;DHT22;10943;48.738;9.320;2022-09-13T07:44:19;25.60;99.90
21565;DHT22;10943;48.738;9.320;2022-09-13T07:46:48;25.10;99.90
21565;DHT22;10943;48.738;9.320;2022-09-13T07:49:17;25.40;99.90
21565;DHT22;10943;48.738;9.320;2022-09-13T07:51:45;25.90;99.90
21565;DHT22;10943;48.738;9.320;2022-09-13T07:54:18;26.10;99.90
21565;DHT22;10943;48.738;9.320;2022-09-13T07:56:46;26.40;99.90
21565;DHT22;10943;48.738;9.320;2022-09-13T07:59:16;26.30;99.90
21565;DHT22;10943;48.738;9.320;2022-09-13T08:01:47;26.80;99.90
21565;DHT22;10943;48.738;9.320;2022-09-13T08:04:20;28.20;99.90
21565;DHT22;10943;48.738;9.320;2022-09-13T08:06:51;30.20;99.90
21565;DHT22;10943;48.738;9.320;2022-09-13T08:09:19;31.30;99.10
21565;DHT22;10943;48.738;9.320;2022-09-13T08:11:48;31.90;96.90
21565;DHT22;10943;48.738;9.320;2022-09-13T08:14:42;32.60;96.30
21565;DHT22;10943;48.738;9.320;2022-09-13T08:18:16;33.80;94.10
21565;DHT22;10943;48.738;9.320;2022-09-13T08:25:16;35.40;88.70
21565;DHT22;10943;48.738;9.320;2022-09-13T08:27:44;36.20;86.20
21565;DHT22;10943;48.738;9.320;2022-09-13T08:30:11;36.60;81.70
21565;DHT22;10943;48.738;9.320;2022-09-13T08:32:39;35.90;82.20
21565;DHT22;10943;48.738;9.320;2022-09-13T08:35:07;35.70;82.30
21565;DHT22;10943;48.738;9.320;2022-09-13T08:37:38;34.60;83.50
21565;DHT22;10943;48.738;9.320;2022-09-13T08:40:06;33.80;85.10
21565;DHT22;10943;48.738;9.320;2022-09-13T08:45:41;33.80;86.40
21565;DHT22;10943;48.738;9.320;2022-09-13T08:48:21;34.50;84.20
21565;DHT22;10943;48.738;9.320;2022-09-13T08:51:00;34.70;83.20
21565;DHT22;10943;48.738;9.320;2022-09-13T08:53:43;34.20;83.20
21565;DHT22;10943;48.738;9.320;2022-09-13T09:02:56;38.30;74.60
21565;DHT22;10943;48.738;9.320;2022-09-13T09:05:51;37.00;75.00
21565;DHT22;10943;48.738;9.320;2022-09-13T09:11:06;35.70;77.90
21565;DHT22;10943;48.738;9.320;2022-09-13T09:13:56;34.30;80.60
21565;DHT22;10943;48.738;9.320;2022-09-13T09:22:16;34.30;80.30
21565;DHT22;10943;48.738;9.320;2022-09-13T09:24:51;34.90;78.60
21565;DHT22;10943;48.738;9.320;2022-09-13T09:27:22;35.40;77.60
21565;DHT22;10943;48.738;9.320;2022-09-13T09:29:51;35.70;76.60
21565;DHT22;10943;48.738;9.320;2022-09-13T09:40:39;36.20;77.10
21565;DHT22;10943;48.738;9.320;2022-09-13T09:43:16;37.50;74.60
21565;DHT22;10943;48.738;9.320;2022-09-13T09:45:56;38.10;73.00
21565;DHT22;10943;48.738;9.320;2022-09-13T09:48:29;39.00;71.10
21565;DHT22;10943;48.738;9.320;2022-09-13T09:51:17;40.30;68.60
21565;DHT22;10943;48.738;9.320;2022-09-13T09:53:53;42.20;65.80
21565;DHT22;10943;48.738;9.320;2022-09-13T09:56:31;44.10;61.90
21565;DHT22;10943;48.738;9.320;2022-09-13T09:59:00;44.70;60.00
21565;DHT22;10943;48.738;9.320;2022-09-13T10:06:43;44.50;58.80
21565;DHT22;10943;48.738;9.320;2022-09-13T10:17:16;42.70;59.40
21565;DHT22;10943;48.738;9.320;2022-09-13T10:23:17;43.50;57.90
21565;DHT22;10943;48.738;9.320;2022-09-13T10:25:58;43.90;57.10
21565;DHT22;10943;48.738;9.320;2022-09-13T10:28:45;44.20;57.20
21565;DHT22;10943;48.738;9.320;2022-09-13T10:31:29;44.40;56.40
21565;DHT22;10943;48.738;9.320;2022-09-13T10:39:33;45.10;54.60
21565;DHT22;10943;48.738;9.320;2022-09-13T10:42:05;47.50;51.70
21565;DHT22;10943;48.738;9.320;2022-09-13T10:47:19;47.60;51.40
21565;DHT22;10943;48.738;9.320;2022-09-13T10:49:55;47.80;51.10
21565;DHT22;10943;48.738;9.320;2022-09-13T10:52:31;48.60;50.10
21565;DHT22;10943;48.738;9.320;2022-09-13T10:57:53;49.00;48.90
21565;DHT22;10943;48.738;9.320;2022-09-13T11:06:48;46.20;50.20
21565;DHT22;10943;48.738;9.320;2022-09-13T11:10:02;46.60;48.90
21565;DHT22;10943;48.738;9.320;2022-09-13T11:13:06;47.10;48.70
21565;DHT22;10943;48.738;9.320;2022-09-13T11:25:06;48.00;45.50
21565;DHT22;10943;48.738;9.320;2022-09-13T11:34:13;45.90;46.70
21565;DHT22;10943;48.738;9.320;2022-09-13T11:43:00;43.80;48.00
21565;DHT22;10943;48.738;9.320;2022-09-13T11:57:17;44.00;47.60
21565;DHT22;10943;48.738;9.320;2022-09-13T11:59:57;43.60;48.00
21565;DHT22;10943;48.738;9.320;2022-09-13T12:02:51;43.20;48.10
21565;DHT22;10943;48.738;9.320;2022-09-13T12:06:06;43.50;47.90
21565;DHT22;10943;48.738;9.320;2022-09-13T12:08:51;43.90;47.10
21565;DHT22;10943;48.738;9.320;2022-09-13T12:11:36;44.10;47.60
21565;DHT22;10943;48.738;9.320;2022-09-13T12:14:14;44.30;45.90
21565;DHT22;10943;48.738;9.320;2022-09-13T12:16:52;44.70;45.50
21565;DHT22;10943;48.738;9.320;2022-09-13T12:22:05;44.30;46.10
21565;DHT22;10943;48.738;9.320;2022-09-13T12:24:47;43.60;46.30
21565;DHT22;10943;48.738;9.320;2022-09-13T12:30:17;43.60;46.00
21565;DHT22;10943;48.738;9.320;2022-09-13T12:32:49;42.70;45.90
21565;DHT22;10943;48.738;9.320;2022-09-13T12:35:32;42.70;45.90
21565;DHT22;10943;48.738;9.320;2022-09-13T12:41:26;42.90;46.40
21565;DHT22;10943;48.738;9.320;2022-09-13T12:50:20;42.30;44.40
21565;DHT22;10943;48.738;9.320;2022-09-13T13:01:33;42.30;45.80
21565;DHT22;10943;48.738;9.320;2022-09-13T13:04:12;42.40;45.40
21565;DHT22;10943;48.738;9.320;2022-09-13T13:12:29;42.30;40.90
21565;DHT22;10943;48.738;9.320;2022-09-13T13:15:03;41.50;41.40
21565;DHT22;10943;48.738;9.320;2022-09-13T13:18:26;40.90;43.70
21565;DHT22;10943;48.738;9.320;2022-09-13T13:23:37;41.00;44.30
21565;DHT22;10943;48.738;9.320;2022-09-13T13:39:43;41.90;42.60
21565;DHT22;10943;48.738;9.320;2022-09-13T13:42:30;42.10;43.50
21565;DHT22;10943;48.738;9.320;2022-09-13T13:50:18;41.80;43.40
21565;DHT22;10943;48.738;9.320;2022-09-13T13:58:24;41.10;43.40
21565;DHT22;10943;48.738;9.320;2022-09-13T14:01:02;40.70;44.70
21565;DHT22;10943;48.738;9.320;2022-09-13T14:03:57;40.10;45.20
21565;DHT22;10943;48.738;9.320;2022-09-13T14:21:23;37.30;46.60
21565;DHT22;10943;48.738;9.320;2022-09-13T14:26:50;37.30;47.10
21565;DHT22;10943;48.738;9.320;2022-09-13T14:29:24;37.50;46.80
21565;DHT22;10943;48.738;9.320;2022-09-13T14:31:55;37.50;47.00
21565;DHT22;10943;48.738;9.320;2022-09-13T14:34:36;37.70;47.10
21565;DHT22;10943;48.738;9.320;2022-09-13T14:37:15;37.60;48.10
21565;DHT22;10943;48.738;9.320;2022-09-13T14:39:57;37.30;48.80
21565;DHT22;10943;48.738;9.320;2022-09-13T14:42:46;37.10;49.10
21565;DHT22;10943;48.738;9.320;2022-09-13T14:45:41;37.20;50.30
21565;DHT22;10943;48.738;9.320;2022-09-13T14:48:19;37.00;49.70
21565;DHT22;10943;48.738;9.320;2022-09-13T14:50:58;36.80;49.50
21565;DHT22;10943;48.738;9.320;2022-09-13T14:53:33;36.60;49.00
21565;DHT22;10943;48.738;9.320;2022-09-13T14:56:05;36.40;49.20
21565;DHT22;10943;48.738;9.320;2022-09-13T14:58:50;36.50;49.70
21565;DHT22;10943;48.738;9.320;2022-09-13T15:01:28;36.30;49.50
21565;DHT22;10943;48.738;9.320;2022-09-13T15:04:00;36.40;49.40
21565;DHT22;10943;48.738;9.320;2022-09-13T15:06:33;36.10;49.40
21565;DHT22;10943;48.738;9.320;2022-09-13T15:14:33;36.10;50.70
21565;DHT22;10943;48.738;9.320;2022-09-13T15:19:51;34.90;53.40
21565;DHT22;10943;48.738;9.320;2022-09-13T15:22:31;34.70;53.60
21565;DHT22;10943;48.738;9.320;2022-09-13T15:25:01;34.60;53.80
21565;DHT22;10943;48.738;9.320;2022-09-13T15:27:41;34.70;54.50
21565;DHT22;10943;48.738;9.320;2022-09-13T15:33:24;34.50;54.80
21565;DHT22;10943;48.738;9.320;2022-09-13T15:41:37;34.50;55.20
21565;DHT22;10943;48.738;9.320;2022-09-13T15:44:09;34.20;55.00
21565;DHT22;10943;48.738;9.320;2022-09-13T15:46:45;34.10;55.50
21565;DHT22;10943;48.738;9.320;2022-09-13T15:49:21;33.90;55.80
21565;DHT22;10943;48.738;9.320;2022-09-13T15:51:59;33.40;57.30
21565;DHT22;10943;48.738;9.320;2022-09-13T15:54:38;33.40;57.60
21565;DHT22;10943;48.738;9.320;2022-09-13T15:57:15;33.40;57.80
21565;DHT22;10943;48.738;9.320;2022-09-13T15:59:48;33.20;58.50
21565;DHT22;10943;48.738;9.320;2022-09-13T16:02:18;33.00;58.70
21565;DHT22;10943;48.738;9.320;2022-09-13T16:04:52;33.00;59.00
21565;DHT22;10943;48.738;9.320;2022-09-13T16:07:22;32.90;59.10
21565;DHT22;10943;48.738;9.320;2022-09-13T16:09:52;32.60;59.60
21565;DHT22;10943;48.738;9.320;2022-09-13T16:12:20;32.50;60.10
21565;DHT22;10943;48.738;9.320;2022-09-13T16:14:50;32.30;60.70
21565;DHT22;10943;48.738;9.320;2022-09-13T16:17:23;32.20;61.40
21565;DHT22;10943;48.738;9.320;2022-09-13T16:19:53;32.10;61.90
21565;DHT22;10943;48.738;9.320;2022-09-13T16:22:21;32.00;62.30
21565;DHT22;10943;48.738;9.320;2022-09-13T16:24:49;32.00;62.80
21565;DHT22;10943;48.738;9.320;2022-09-13T16:27:17;32.00;63.40
21565;DHT22;10943;48.738;9.320;2022-09-13T16:29:47;31.90;63.70
21565;DHT22;10943;48.738;9.320;2022-09-13T16:32:14;32.00;64.20
21565;DHT22;10943;48.738;9.320;2022-09-13T16:34:42;31.90;64.60
21565;DHT22;10943;48.738;9.320;2022-09-13T16:37:13;31.80;65.10
21565;DHT22;10943;48.738;9.320;2022-09-13T16:39:42;31.50;65.70
21565;DHT22;10943;48.738;9.320;2022-09-13T16:42:12;31.60;65.90
21565;DHT22;10943;48.738;9.320;2022-09-13T16:44:42;31.50;66.40
21565;DHT22;10943;48.738;9.320;2022-09-13T16:47:10;31.30;66.70
21565;DHT22;10943;48.738;9.320;2022-09-13T16:49:38;31.40;67.00
21565;DHT22;10943;48.738;9.320;2022-09-13T16:52:05;31.30;67.20
21565;DHT22;10943;48.738;9.320;2022-09-13T16:54:35;31.20;67.60
21565;DHT22;10943;48.738;9.320;2022-09-13T16:57:05;31.10;67.90
21565;DHT22;10943;48.738;9.320;2022-09-13T16:59:33;31.00;68.50
21565;DHT22;10943;48.738;9.320;2022-09-13T17:02:03;31.10;68.40
21565;DHT22;10943;48.738;9.320;2022-09-13T17:04:31;31.00;68.70
21565;DHT22;10943;48.738;9.320;2022-09-13T17:06:59;30.90;69.30
21565;DHT22;10943;48.738;9.320;2022-09-13T17:09:28;30.90;70.10
21565;DHT22;10943;48.738;9.320;2022-09-13T17:11:57;30.80;70.40
21565;DHT22;10943;48.738;9.320;2022-09-13T17:14:25;30.80;70.80
21565;DHT22;10943;48.738;9.320;2022-09-13T17:16:55;30.70;71.70
21565;DHT22;10943;48.738;9.320;2022-09-13T17:19:26;30.60;71.10
21565;DHT22;10943;48.738;9.320;2022-09-13T17:22:00;30.60;71.50
21565;DHT22;10943;48.738;9.320;2022-09-13T17:24:34;30.40;73.40
21565;DHT22;10943;48.738;9.320;2022-09-13T17:27:03;30.30;73.30
21565;DHT22;10943;48.738;9.320;2022-09-13T17:29:33;30.20;74.40
21565;DHT22;10943;48.738;9.320;2022-09-13T17:32:03;30.10;74.30
21565;DHT22;10943;48.738;9.320;2022-09-13T17:34:32;30.00;75.10
21565;DHT22;10943;48.738;9.320;2022-09-13T17:37:01;29.80;77.10
21565;DHT22;10943;48.738;9.320;2022-09-13T17:39:29;29.60;77.60
21565;DHT22;10943;48.738;9.320;2022-09-13T17:41:57;29.40;78.00
21565;DHT22;10943;48.738;9.320;2022-09-13T17:44:24;29.20;78.60
21565;DHT22;10943;48.738;9.320;2022-09-13T17:46:52;29.10;79.10
21565;DHT22;10943;48.738;9.320;2022-09-13T17:49:19;29.10;79.30
21565;DHT22;10943;48.738;9.320;2022-09-13T17:51:46;28.80;79.70
21565;DHT22;10943;48.738;9.320;2022-09-13T17:54:14;28.80;80.30
21565;DHT22;10943;48.738;9.320;2022-09-13T17:56:43;28.70;80.80
21565;DHT22;10943;48.738;9.320;2022-09-13T17:59:13;28.70;81.10
21565;DHT22;10943;48.738;9.320;2022-09-13T18:01:48;28.60;82.00
21565;DHT22;10943;48.738;9.320;2022-09-13T18:04:30;28.50;82.60
21565;DHT22;10943;48.738;9.320;2022-09-13T18:06:58;28.30;82.90
21565;DHT22;10943;48.738;9.320;2022-09-13T18:09:25;28.20;83.50
21565;DHT22;10943;48.738;9.320;2022-09-13T18:11:53;28.10;84.10
21565;DHT22;10943;48.738;9.320;2022-09-13T18:14:20;28.00;84.90
21565;DHT22;10943;48.738;9.320;2022-09-13T18:16:49;27.90;85.40
21565;DHT22;10943;48.738;9.320;2022-09-13T18:19:23;27.70;86.30
21565;DHT22;10943;48.738;9.320;2022-09-13T18:22:15;27.50;86.70
21565;DHT22;10943;48.738;9.320;2022-09-13T18:24:46;27.40;87.00
21565;DHT22;10943;48.738;9.320;2022-09-13T18:27:15;27.40;87.80
21565;DHT22;10943;48.738;9.320;2022-09-13T18:29:44;27.30;88.80
21565;DHT22;10943;48.738;9.320;2022-09-13T18:32:23;27.10;89.60
21565;DHT22;10943;48.738;9.320;2022-09-13T18:34:55;27.20;90.00
21565;DHT22;10943;48.738;9.320;2022-09-13T18:37:27;27.00;89.40
21565;DHT22;10943;48.738;9.320;2022-09-13T18:40:03;26.90;89.70
21565;DHT22;10943;48.738;9.320;2022-09-13T18:42:38;26.90;90.10
21565;DHT22;10943;48.738;9.320;2022-09-13T18:45:13;26.80;90.60
21565;DHT22;10943;48.738;9.320;2022-09-13T18:47:51;26.80;91.00
21565;DHT22;10943;48.738;9.320;2022-09-13T18:50:20;26.60;91.20
21565;DHT22;10943;48.738;9.320;2022-09-13T18:52:52;26.60;91.10
21565;DHT22;10943;48.738;9.320;2022-09-13T18:55:28;26.60;91.10
21565;DHT22;10943;48.738;9.320;2022-09-13T18:58:29;26.50;91.20
21565;DHT22;10943;48.738;9.320;2022-09-13T19:01:41;26.50;91.60
21565;DHT22;10943;48.738;9.320;2022-09-13T19:04:22;26.30;91.90
21565;DHT22;10943;48.738;9.320;2022-09-13T19:06:57;26.30;92.10
21565;DHT22;10943;48.738;9.320;2022-09-13T19:09:24;26.20;92.50
21565;DHT22;10943;48.738;9.320;2022-09-13T19:11:53;26.20;92.70
21565;DHT22;10943;48.738;9.320;2022-09-13T19:14:24;26.20;92.80
21565;DHT22;10943;48.738;9.320;2022-09-13T19:16:56;26.20;92.90
21565;DHT22;10943;48.738;9.320;2022-09-13T19:19:27;26.10;92.90
21565;DHT22;10943;48.738;9.320;2022-09-13T19:21:56;26.20;93.20
21565;DHT22;10943;48.738;9.320;2022-09-13T19:24:24;26.20;93.00
21565;DHT22;10943;48.738;9.320;2022-09-13T19:26:58;26.30;92.90
21565;DHT22;10943;48.738;9.320;2022-09-13T19:29:28;26.30;93.30
21565;DHT22;10943;48.738;9.320;2022-09-13T19:31:55;26.30;93.80
21565;DHT22;10943;48.738;9.320;2022-09-13T19:34:24;26.20;94.00
21565;DHT22;10943;48.738;9.320;2022-09-13T19:36:52;26.00;93.90
21565;DHT22;10943;48.738;9.320;2022-09-13T19:39:24;26.00;94.30
21565;DHT22;10943;48.738;9.320;2022-09-13T19:41:56;26.20;94.40
21565;DHT22;10943;48.738;9.320;2022-09-13T19:44:26;26.10;94.60
21565;DHT22;10943;48.738;9.320;2022-09-13T19:46:54;26.00;94.90
21565;DHT22;10943;48.738;9.320;2022-09-13T19:50:30;26.00;95.00
21565;DHT22;10943;48.738;9.320;2022-09-13T19:53:10;26.10;94.90
21565;DHT22;10943;48.738;9.320;2022-09-13T19:56:13;26.10;94.90
21565;DHT22;10943;48.738;9.320;2022-09-13T19:58:43;25.90;95.30
21565;DHT22;10943;48.738;9.320;2022-09-13T20:03:56;25.90;96.20
21565;DHT22;10943;48.738;9.320;2022-09-13T20:06:32;25.70;97.80
21565;DHT22;10943;48.738;9.320;2022-09-13T20:09:05;25.70;98.30
21565;DHT22;10943;48.738;9.320;2022-09-13T20:11:36;25.70;97.50
21565;DHT22;10943;48.738;9.320;2022-09-13T20:14:08;25.50;97.70
21565;DHT22;10943;48.738;9.320;2022-09-13T20:16:39;25.50;97.80
21565;DHT22;10943;48.738;9.320;2022-09-13T20:19:13;25.50;97.40
21565;DHT22;10943;48.738;9.320;2022-09-13T20:22:06;25.50;97.40
21565;DHT22;10943;48.738;9.320;2022-09-13T20:24:35;25.50;97.30
21565;DHT22;10943;48.738;9.320;2022-09-13T20:27:05;25.60;97.50